Time;durP1;ratioP1;P1;durP2;ratioP2;P2;SDS_P1;SDS_P2;PMS_P1;PMS_P2;Temp;Humidity;BMP_temperature;BMP_pressure;BME280_temperature;BME280_humidity;BME280_pressure;Samples;Min_cycle;Max_cycle;Signal;HPM_P1;HPM_P2
2021/11/07 00:05:10;;;;;;;23.48;11.80;;;4.00;99.90;;;;;;4939704;28;20080;-66
2021/11/07 00:10:14;;;;;;;25.42;12.52;;;4.10;99.90;;;;;;5020147;28;20490;-69
2021/11/07 00:12:43;;;;;;;31.00;13.10;;;4.10;99.90;;;;;;5027865;28;20029;-67
2021/11/07 00:15:12;;;;;;;24.60;10.75;;;4.10;99.90;;;;;;5023248;28;20032;-68
2021/11/07 00:17:38;;;;;;;;;;;4.10;99.90;;;;;;5012732;28;20681;-66
2021/11/07 00:20:11;;;;;;;27.40;12.25;;;4.10;99.90;;;;;;5010776;28;19932;-67
2021/11/07 00:22:48;;;;;;;27.25;11.77;;;4.00;99.90;;;;;;5032039;28;20032;-67
2021/11/07 00:25:24;;;;;;;20.63;10.43;;;4.00;99.90;;;;;;5025508;28;20032;-66
2021/11/07 00:38:20;;;;;;;27.95;11.52;;;3.90;99.90;;;;;;5034048;28;20030;-67
2021/11/07 00:43:39;;;;;;;24.48;10.73;;;3.90;99.90;;;;;;5026177;28;20031;-67
2021/11/07 00:46:19;;;;;;;27.65;12.27;;;4.00;99.90;;;;;;5038468;28;20087;-67
2021/11/07 00:48:50;;;;;;;26.80;12.82;;;3.90;99.90;;;;;;5029188;28;20026;-67
2021/11/07 00:51:26;;;;;;;27.85;11.45;;;3.90;99.90;;;;;;5023880;28;20662;-67
2021/11/07 00:59:19;;;;;;;25.70;12.25;;;3.90;99.90;;;;;;5029951;28;20056;-68
2021/11/07 01:01:54;;;;;;;22.30;9.85;;;3.90;99.90;;;;;;5028138;28;20038;-67
2021/11/07 01:04:21;;;;;;;27.10;11.88;;;3.90;99.90;;;;;;5028799;28;20707;-67
2021/11/07 01:06:46;;;;;;;29.05;13.10;;;3.90;99.90;;;;;;5012672;28;20037;-67
2021/11/07 01:09:13;;;;;;;25.67;12.65;;;3.90;99.90;;;;;;5031021;28;20026;-67
2021/11/07 01:11:39;;;;;;;31.13;12.93;;;4.00;99.90;;;;;;5034928;28;20082;-67
2021/11/07 01:14:07;;;;;;;33.90;13.00;;;3.90;99.90;;;;;;5028103;28;20091;-67
2021/11/07 01:16:33;;;;;;;29.08;12.43;;;4.00;99.90;;;;;;5015095;28;20049;-67
2021/11/07 01:18:59;;;;;;;25.90;11.48;;;3.90;99.90;;;;;;5029030;28;20542;-67
2021/11/07 01:21:28;;;;;;;28.20;11.85;;;4.00;99.90;;;;;;5029449;28;20414;-67
2021/11/07 01:24:02;;;;;;;33.90;13.43;;;4.00;99.90;;;;;;5020282;28;20029;-67
2021/11/07 01:26:34;;;;;;;29.77;13.70;;;4.00;99.90;;;;;;5020355;28;20056;-67
2021/11/07 01:29:12;;;;;;;24.10;12.13;;;4.00;99.90;;;;;;5019503;28;20033;-67
2021/11/07 01:31:39;;;;;;;32.25;13.38;;;4.00;99.90;;;;;;5034236;28;20037;-67
2021/11/07 01:34:07;;;;;;;32.22;14.25;;;4.00;99.90;;;;;;5013763;28;20631;-67
2021/11/07 01:36:48;;;;;;;36.38;14.07;;;4.00;99.90;;;;;;5023924;28;20067;-67
2021/11/07 01:39:36;;;;;;;30.45;12.70;;;4.00;99.90;;;;;;5010512;28;20038;-67
2021/11/07 01:44:58;;;;;;;25.52;13.00;;;4.00;99.90;;;;;;5021850;28;20128;-67
2021/11/07 01:47:25;;;;;;;30.92;12.98;;;4.00;99.90;;;;;;5039258;28;20413;-67
2021/11/07 01:49:51;;;;;;;24.98;11.77;;;4.00;99.90;;;;;;5026029;28;20040;-67
2021/11/07 01:52:18;;;;;;;26.45;12.18;;;4.00;99.90;;;;;;5005075;28;20096;-67
2021/11/07 01:55:03;;;;;;;28.95;11.73;;;4.00;99.90;;;;;;5030025;28;20021;-67
2021/11/07 01:57:33;;;;;;;23.52;11.55;;;4.10;99.90;;;;;;5021554;28;20025;-67
2021/11/07 02:00:08;;;;;;;29.77;12.48;;;4.00;99.90;;;;;;5028150;28;20387;-67
2021/11/07 02:02:35;;;;;;;26.90;12.75;;;4.00;99.90;;;;;;5022544;28;20111;-68
2021/11/07 02:05:03;;;;;;;27.02;12.07;;;4.10;99.90;;;;;;5006320;28;20045;-67
2021/11/07 02:07:28;;;;;;;21.10;11.75;;;4.10;99.90;;;;;;5034715;28;20027;-68
2021/11/07 02:09:54;;;;;;;23.63;12.25;;;4.10;99.90;;;;;;5024357;28;20393;-68
2021/11/07 02:12:20;;;;;;;27.00;11.57;;;4.10;99.90;;;;;;5027842;28;20037;-67
2021/11/07 02:14:45;;;;;;;27.15;11.90;;;4.10;99.90;;;;;;5031424;28;20032;-67
2021/11/07 02:17:12;;;;;;;23.35;11.32;;;4.10;99.90;;;;;;5023396;28;20027;-67
2021/11/07 02:19:42;;;;;;;25.42;12.63;;;4.10;99.90;;;;;;5032198;28;20028;-67
2021/11/07 02:22:08;;;;;;;25.45;11.95;;;4.00;99.90;;;;;;5023258;28;20025;-67
2021/11/07 02:24:36;;;;;;;25.70;11.30;;;4.00;99.90;;;;;;5022119;28;20521;-67
2021/11/07 02:27:03;;;;;;;25.37;10.73;;;4.00;99.90;;;;;;5031216;28;20025;-67
2021/11/07 02:29:30;;;;;;;30.60;13.55;;;4.10;99.90;;;;;;5023122;28;20318;-67
2021/11/07 02:31:57;;;;;;;21.42;10.30;;;4.00;99.90;;;;;;5023628;28;20043;-67
2021/11/07 02:34:25;;;;;;;24.75;12.52;;;3.90;99.90;;;;;;5032562;28;20037;-66
2021/11/07 02:36:53;;;;;;;25.30;11.70;;;4.00;99.90;;;;;;5026752;28;20021;-67
2021/11/07 02:39:20;;;;;;;27.00;11.57;;;4.00;99.90;;;;;;5025397;28;20040;-67
2021/11/07 02:41:47;;;;;;;26.15;11.88;;;4.00;99.90;;;;;;5036583;28;20029;-67
2021/11/07 02:44:29;;;;;;;24.35;10.98;;;3.90;99.90;;;;;;5025068;28;20036;-67
2021/11/07 02:46:55;;;;;;;22.52;10.55;;;3.90;99.90;;;;;;5022036;28;20022;-67
2021/11/07 02:49:21;;;;;;;20.50;10.98;;;3.90;99.90;;;;;;5007149;28;20113;-67
2021/11/07 02:51:47;;;;;;;22.42;11.55;;;3.90;99.90;;;;;;5028389;28;20147;-67
2021/11/07 02:54:13;;;;;;;23.52;11.40;;;4.00;99.90;;;;;;5012661;28;20580;-67
2021/11/07 02:56:39;;;;;;;19.45;10.40;;;3.90;99.90;;;;;;5021643;28;20422;-67
2021/11/07 02:59:07;;;;;;;22.80;10.68;;;3.90;99.90;;;;;;5026188;28;20025;-67
2021/11/07 03:01:33;;;;;;;;;;;3.90;99.90;;;;;;5025201;28;20037;-67
2021/11/07 03:04:07;;;;;;;20.33;9.95;;;3.90;99.90;;;;;;5011135;28;19913;-67
2021/11/07 03:06:35;;;;;;;17.42;9.80;;;3.90;99.90;;;;;;5024733;28;20029;-67
2021/11/07 03:09:03;;;;;;;24.90;10.98;;;4.00;99.90;;;;;;5026468;28;20033;-67
2021/11/07 03:11:30;;;;;;;21.33;9.70;;;3.90;99.90;;;;;;5035176;28;20029;-67
2021/11/07 03:14:04;;;;;;;19.10;9.68;;;3.90;99.90;;;;;;5022282;28;20029;-67
2021/11/07 03:16:29;;;;;;;26.27;11.88;;;3.90;99.90;;;;;;5026345;28;20068;-67
2021/11/07 03:18:55;;;;;;;23.73;10.60;;;3.90;99.90;;;;;;5029037;28;20508;-66
2021/11/07 03:21:23;;;;;;;19.30;9.50;;;3.90;99.90;;;;;;5034280;28;20025;-67
2021/11/07 03:23:50;;;;;;;19.23;9.45;;;3.90;99.90;;;;;;5031047;28;20029;-67
2021/11/07 03:26:24;;;;;;;21.73;9.97;;;4.00;99.90;;;;;;5035109;28;20125;-67
2021/11/07 03:28:54;;;;;;;19.05;10.50;;;4.00;99.90;;;;;;5033177;28;20028;-66
2021/11/07 03:31:29;;;;;;;21.30;10.43;;;4.00;99.90;;;;;;5033440;28;20044;-67
2021/11/07 03:34:01;;;;;;;19.30;9.30;;;4.00;99.90;;;;;;5035303;28;20029;-67
2021/11/07 03:36:32;;;;;;;16.20;9.23;;;3.90;99.90;;;;;;5029440;28;20478;-67
2021/11/07 03:38:58;;;;;;;19.38;10.00;;;4.00;99.90;;;;;;5026926;28;20017;-67
2021/11/07 03:41:23;;;;;;;16.88;8.52;;;4.00;99.90;;;;;;5029974;28;20112;-66
2021/11/07 03:43:49;;;;;;;14.10;7.97;;;4.00;99.90;;;;;;5023650;28;20028;-66
2021/11/07 03:46:16;;;;;;;18.70;8.25;;;4.00;99.90;;;;;;5026812;28;20026;-67
2021/11/07 03:48:42;;;;;;;14.32;8.73;;;3.90;99.90;;;;;;5038734;28;20502;-66
2021/11/07 03:51:12;;;;;;;16.45;9.55;;;3.90;99.90;;;;;;5008476;28;20033;-67
2021/11/07 03:53:39;;;;;;;17.60;9.10;;;3.90;99.90;;;;;;5032640;28;20046;-66
2021/11/07 03:56:05;;;;;;;17.17;9.30;;;3.80;99.90;;;;;;5032088;28;20670;-67
2021/11/07 03:58:30;;;;;;;15.43;8.25;;;3.80;99.90;;;;;;5028246;28;20096;-67
2021/11/07 04:00:56;;;;;;;19.45;9.27;;;3.80;99.90;;;;;;5030514;28;20025;-67
2021/11/07 04:03:22;;;;;;;17.05;8.30;;;3.80;99.90;;;;;;5034401;28;20022;-66
2021/11/07 04:05:48;;;;;;;14.10;8.75;;;3.70;99.90;;;;;;5030996;28;20029;-66
2021/11/07 04:08:14;;;;;;;16.20;9.27;;;3.70;99.90;;;;;;5030264;28;20398;-67
2021/11/07 04:10:40;;;;;;;19.33;9.30;;;3.70;99.90;;;;;;5042829;28;20037;-66
2021/11/07 04:13:06;;;;;;;20.45;10.43;;;3.70;99.90;;;;;;5042091;28;20375;-67
2021/11/07 04:15:33;;;;;;;15.40;8.60;;;3.70;99.90;;;;;;5031932;28;20261;-67
2021/11/07 04:17:59;;;;;;;16.38;8.43;;;3.70;99.90;;;;;;5035198;28;20036;-67
2021/11/07 04:20:25;;;;;;;16.70;9.05;;;3.70;99.90;;;;;;5021507;28;21666;-66
2021/11/07 04:22:51;;;;;;;16.00;8.50;;;3.70;99.90;;;;;;5013349;28;20022;-66
2021/11/07 04:25:17;;;;;;;17.33;9.27;;;3.70;99.90;;;;;;5032649;28;20025;-66
2021/11/07 04:27:43;;;;;;;18.17;9.20;;;3.60;99.90;;;;;;5045416;28;20064;-66
2021/11/07 04:30:09;;;;;;;15.73;9.98;;;3.70;99.90;;;;;;5037707;28;20409;-66
2021/11/07 04:32:36;;;;;;;18.00;10.02;;;3.70;99.90;;;;;;5028261;28;20477;-66
2021/11/07 04:35:02;;;;;;;15.55;9.13;;;3.70;99.90;;;;;;5037085;28;20660;-66
2021/11/07 04:37:28;;;;;;;20.52;9.95;;;3.70;99.90;;;;;;5024514;28;20433;-67
2021/11/07 04:39:55;;;;;;;19.48;10.60;;;3.70;99.90;;;;;;5031571;28;20052;-66
2021/11/07 04:42:20;;;;;;;17.80;10.27;;;3.70;99.90;;;;;;5022422;28;20080;-67
2021/11/07 04:44:46;;;;;;;21.73;11.18;;;3.70;99.90;;;;;;5015196;28;20033;-66
2021/11/07 04:47:12;;;;;;;17.88;9.60;;;3.70;99.90;;;;;;5005713;28;20112;-67
2021/11/07 04:49:38;;;;;;;17.83;10.10;;;3.70;99.90;;;;;;5045447;28;20029;-66
2021/11/07 04:52:04;;;;;;;20.40;10.90;;;3.70;99.90;;;;;;5019406;28;20093;-66
2021/11/07 04:54:31;;;;;;;18.98;11.75;;;3.70;99.90;;;;;;5038390;28;20418;-67
2021/11/07 04:56:57;;;;;;;20.92;10.13;;;3.70;99.90;;;;;;5029018;28;20128;-67
2021/11/07 04:59:23;;;;;;;21.60;10.63;;;3.70;99.90;;;;;;5035909;28;20040;-66
2021/11/07 05:01:49;;;;;;;17.27;9.68;;;3.70;99.90;;;;;;5029158;28;20041;-67
2021/11/07 05:04:15;;;;;;;20.45;10.32;;;3.60;99.90;;;;;;5025915;28;20056;-67
2021/11/07 05:06:43;;;;;;;19.08;9.90;;;3.60;99.90;;;;;;5023760;28;20170;-66
2021/11/07 05:09:09;;;;;;;21.65;9.85;;;3.60;99.90;;;;;;5025431;28;20498;-66
2021/11/07 05:11:35;;;;;;;20.88;11.13;;;3.60;99.90;;;;;;5011969;28;20021;-66
2021/11/07 05:14:00;;;;;;;20.30;9.70;;;3.60;99.90;;;;;;5027316;28;20033;-66
2021/11/07 05:16:27;;;;;;;20.40;10.68;;;3.60;99.90;;;;;;5019509;28;20061;-66
2021/11/07 05:18:53;;;;;;;21.50;11.38;;;3.60;99.90;;;;;;5032400;28;20024;-66
2021/11/07 05:21:21;;;;;;;26.10;12.07;;;3.60;99.90;;;;;;5025468;28;20032;-66
2021/11/07 05:23:47;;;;;;;22.05;11.20;;;3.60;99.90;;;;;;5035064;28;20112;-66
2021/11/07 05:26:13;;;;;;;20.23;10.30;;;3.60;99.90;;;;;;5003625;28;20148;-66
2021/11/07 05:28:38;;;;;;;22.02;11.20;;;3.70;99.90;;;;;;5034593;28;20025;-66
2021/11/07 05:31:04;;;;;;;16.33;9.70;;;3.70;99.90;;;;;;5027200;28;20049;-67
2021/11/07 05:33:31;;;;;;;21.83;10.55;;;3.70;99.90;;;;;;5036718;28;20029;-66
2021/11/07 05:35:56;;;;;;;20.65;10.93;;;3.60;99.90;;;;;;5012292;28;20050;-67
2021/11/07 05:38:22;;;;;;;20.88;11.23;;;3.70;99.90;;;;;;5027856;28;20057;-66
2021/11/07 05:40:48;;;;;;;20.25;10.05;;;3.70;99.90;;;;;;5034548;28;20036;-66
2021/11/07 05:43:14;;;;;;;17.15;8.98;;;3.70;99.90;;;;;;5024692;28;20029;-66
2021/11/07 05:45:40;;;;;;;17.33;9.30;;;3.70;99.90;;;;;;5028152;28;20412;-66
2021/11/07 05:48:06;;;;;;;19.95;9.93;;;3.70;99.90;;;;;;5016474;28;20033;-66
2021/11/07 05:50:33;;;;;;;19.92;11.10;;;3.60;99.90;;;;;;5015149;28;20406;-66
2021/11/07 05:53:00;;;;;;;18.70;10.48;;;3.70;99.90;;;;;;5018502;28;20068;-67
2021/11/07 05:55:25;;;;;;;21.33;10.32;;;3.70;99.90;;;;;;5033972;28;20029;-67
2021/11/07 05:57:52;;;;;;;20.00;10.93;;;3.70;99.90;;;;;;5047043;28;20034;-67
2021/11/07 06:00:19;;;;;;;17.35;9.57;;;3.70;99.90;;;;;;5034343;28;20028;-67
2021/11/07 06:02:46;;;;;;;19.98;9.77;;;3.70;99.90;;;;;;5023099;28;20045;-67
2021/11/07 06:05:13;;;;;;;21.30;11.40;;;3.70;99.90;;;;;;5031786;28;20029;-67
2021/11/07 06:07:39;;;;;;;20.92;11.32;;;3.80;99.90;;;;;;5031444;28;20433;-67
2021/11/07 06:10:05;;;;;;;21.52;11.18;;;3.70;99.90;;;;;;5015717;28;20030;-67
2021/11/07 06:12:31;;;;;;;19.95;10.32;;;3.80;99.90;;;;;;4992298;28;20029;-67
2021/11/07 06:14:56;;;;;;;26.30;10.77;;;3.80;99.90;;;;;;5026682;28;20033;-66
2021/11/07 06:17:22;;;;;;;16.30;9.40;;;3.80;99.90;;;;;;5033505;28;20744;-66
2021/11/07 06:19:47;;;;;;;17.20;9.90;;;3.80;99.90;;;;;;5019938;28;20115;-67
2021/11/07 06:22:13;;;;;;;19.15;9.95;;;3.80;99.90;;;;;;5018768;28;20017;-66
2021/11/07 06:24:39;;;;;;;17.00;10.15;;;3.80;99.90;;;;;;5013048;28;20060;-66
2021/11/07 06:27:05;;;;;;;20.30;10.25;;;3.80;99.90;;;;;;5024565;28;20076;-67
2021/11/07 06:29:31;;;;;;;22.88;10.45;;;3.80;99.90;;;;;;5018593;28;20264;-66
2021/11/07 06:31:57;;;;;;;20.42;9.75;;;3.80;99.90;;;;;;5023495;28;20124;-67
2021/11/07 06:34:25;;;;;;;20.90;10.98;;;3.90;99.90;;;;;;5020380;28;20033;-67
2021/11/07 06:36:52;;;;;;;20.60;10.00;;;3.90;99.90;;;;;;5028211;28;20106;-67
2021/11/07 06:39:18;;;;;;;20.25;10.02;;;3.90;99.90;;;;;;5023062;28;20029;-67
2021/11/07 06:41:44;;;;;;;17.48;10.10;;;3.90;99.90;;;;;;5028133;28;20049;-67
2021/11/07 06:44:11;;;;;;;25.13;12.00;;;3.90;99.90;;;;;;5007082;28;20037;-66
2021/11/07 06:46:37;;;;;;;22.60;10.93;;;3.90;99.90;;;;;;5025687;28;20033;-67
2021/11/07 06:49:10;;;;;;;19.02;9.88;;;4.00;99.90;;;;;;5035227;28;20382;-66
2021/11/07 06:51:36;;;;;;;21.88;11.02;;;3.90;99.90;;;;;;5022980;28;20159;-67
2021/11/07 06:54:02;;;;;;;22.13;11.63;;;4.00;99.90;;;;;;5026362;28;20135;-67
2021/11/07 06:56:28;;;;;;;19.88;9.73;;;3.90;99.90;;;;;;5034031;28;20686;-66
2021/11/07 06:58:56;;;;;;;20.73;11.27;;;4.00;99.90;;;;;;5028509;28;20041;-67
2021/11/07 07:01:22;;;;;;;19.70;9.98;;;4.00;99.90;;;;;;5006135;28;20695;-66
2021/11/07 07:03:48;;;;;;;18.73;9.88;;;4.00;99.90;;;;;;5021915;28;20025;-67
2021/11/07 07:06:14;;;;;;;17.63;8.90;;;4.00;99.90;;;;;;5028245;28;20474;-67
2021/11/07 07:08:46;;;;;;;17.95;9.75;;;4.00;99.90;;;;;;5028700;28;20037;-67
2021/11/07 07:11:15;;;;;;;19.73;9.80;;;4.10;99.90;;;;;;5028128;28;20223;-67
2021/11/07 07:29:07;;;;;;;18.42;9.65;;;4.10;99.90;;;;;;5034468;28;20041;-67
2021/11/07 07:36:25;;;;;;;21.55;10.00;;;4.10;99.90;;;;;;5019390;28;20075;-67
2021/11/07 07:38:51;;;;;;;22.42;11.48;;;4.10;99.90;;;;;;5003303;28;20028;-67
2021/11/07 07:41:16;;;;;;;21.83;10.40;;;4.10;99.90;;;;;;5021417;28;20030;-67
2021/11/07 07:43:42;;;;;;;19.73;10.07;;;4.20;99.90;;;;;;5025300;28;20118;-67
2021/11/07 07:46:11;;;;;;;22.17;10.25;;;4.20;99.90;;;;;;5020673;28;20029;-66
2021/11/07 07:48:45;;;;;;;23.48;11.43;;;4.20;99.90;;;;;;5035298;28;20021;-67
2021/11/07 07:51:14;;;;;;;15.90;9.75;;;4.20;99.90;;;;;;5017961;28;20032;-66
2021/11/07 07:53:41;;;;;;;22.77;10.57;;;4.30;99.90;;;;;;5026457;28;20038;-66
2021/11/07 07:56:09;;;;;;;20.35;11.02;;;4.30;99.90;;;;;;5006080;28;20435;-67
2021/11/07 07:58:36;;;;;;;17.38;9.55;;;4.30;99.90;;;;;;5023041;28;20489;-66
2021/11/07 08:01:03;;;;;;;17.13;9.10;;;4.30;99.90;;;;;;5023642;28;20447;-66
2021/11/07 08:03:29;;;;;;;17.88;9.90;;;4.30;99.90;;;;;;5030073;28;20096;-67
2021/11/07 08:05:55;;;;;;;17.00;10.15;;;4.40;99.90;;;;;;5025121;28;20489;-66
2021/11/07 08:08:21;;;;;;;19.50;9.88;;;4.40;99.90;;;;;;5018867;28;20029;-66
2021/11/07 08:10:47;;;;;;;18.90;9.55;;;4.40;99.90;;;;;;5025369;28;20039;-67
2021/11/07 08:13:13;;;;;;;21.27;10.95;;;4.40;99.90;;;;;;5020572;28;20290;-67
2021/11/07 08:15:38;;;;;;;22.02;10.38;;;4.50;99.90;;;;;;5013798;28;20061;-66
2021/11/07 08:18:04;;;;;;;19.30;10.13;;;4.40;99.90;;;;;;5021486;28;20044;-67
2021/11/07 08:20:30;;;;;;;20.38;10.40;;;4.40;99.90;;;;;;5027461;28;20422;-68
2021/11/07 08:22:56;;;;;;;15.70;9.77;;;4.40;99.90;;;;;;5016825;28;20514;-67
2021/11/07 08:25:23;;;;;;;17.30;8.35;;;4.50;99.90;;;;;;5021393;28;20029;-66
2021/11/07 08:27:52;;;;;;;23.15;11.30;;;4.40;99.90;;;;;;5021260;28;22009;-67
2021/11/07 08:30:24;;;;;;;21.23;10.45;;;4.40;99.90;;;;;;5021585;28;20029;-67
2021/11/07 08:32:50;;;;;;;19.63;9.45;;;4.50;99.90;;;;;;5023207;28;20069;-66
2021/11/07 08:35:16;;;;;;;18.48;9.15;;;4.50;99.90;;;;;;5019722;28;20087;-67
2021/11/07 08:37:49;;;;;;;21.08;11.25;;;4.50;99.90;;;;;;5019494;28;20475;-67
2021/11/07 08:40:21;;;;;;;17.83;9.23;;;4.60;99.90;;;;;;5022425;28;20060;-66
2021/11/07 08:42:52;;;;;;;20.50;10.10;;;4.60;99.90;;;;;;5022999;28;20470;-68
2021/11/07 09:04:23;;;;;;;13.48;8.10;;;5.00;99.90;;;;;;5019367;28;20038;-67
2021/11/07 09:09:25;;;;;;;16.38;8.25;;;5.00;99.90;;;;;;5022323;28;20061;-67
2021/11/07 09:11:53;;;;;;;18.80;9.38;;;5.10;99.90;;;;;;5020684;28;20569;-67
2021/11/07 09:14:34;;;;;;;15.77;8.48;;;5.20;99.90;;;;;;5018756;28;20115;-67
2021/11/07 09:17:02;;;;;;;14.60;8.63;;;5.20;99.30;;;;;;5021247;28;21110;-67
2021/11/07 09:19:30;;;;;;;17.30;9.80;;;5.30;99.90;;;;;;5019782;28;20028;-67
2021/11/07 09:22:45;;;;;;;16.73;9.25;;;5.20;99.20;;;;;;5015665;28;20026;-67
2021/11/07 09:24:49;;;;;;;19.80;9.70;;;5.30;99.80;;;;;;5017609;28;20045;-67
2021/11/07 09:27:39;;;;;;;16.67;9.27;;;5.30;99.40;;;;;;5023912;28;20123;-68
2021/11/07 09:30:15;;;;;;;19.20;9.35;;;5.30;98.60;;;;;;5022702;28;20037;-67
2021/11/07 09:32:53;;;;;;;16.23;9.18;;;5.40;99.70;;;;;;5021455;28;20033;-67
2021/11/07 09:40:13;;;;;;;17.40;9.45;;;5.50;99.00;;;;;;5016668;28;20445;-68
2021/11/07 09:48:24;;;;;;;17.25;9.30;;;5.60;99.00;;;;;;5008235;28;20049;-67
2021/11/07 09:50:52;;;;;;;18.48;9.38;;;5.50;98.30;;;;;;5036206;28;20513;-67
2021/11/07 09:53:18;;;;;;;20.83;10.13;;;5.60;99.90;;;;;;5022773;28;20418;-67
2021/11/07 09:55:45;;;;;;;18.83;10.27;;;5.50;97.90;;;;;;5025422;28;20029;-67
2021/11/07 09:58:12;;;;;;;17.08;9.75;;;5.60;99.30;;;;;;5021564;28;20050;-68
2021/11/07 10:00:45;;;;;;;16.05;9.25;;;5.60;98.20;;;;;;5020259;28;20044;-67
2021/11/07 10:03:13;;;;;;;21.70;10.27;;;5.60;97.70;;;;;;5020062;28;20049;-67
2021/11/07 10:05:43;;;;;;;16.83;9.68;;;5.50;98.60;;;;;;5018097;28;20033;-67
2021/11/07 10:08:11;;;;;;;20.65;10.60;;;5.50;98.30;;;;;;5020104;28;20067;-67
2021/11/07 10:10:44;;;;;;;17.98;10.70;;;5.50;99.10;;;;;;5017708;28;20219;-67
2021/11/07 10:13:22;;;;;;;21.27;10.15;;;5.60;99.90;;;;;;5016090;28;20418;-67
2021/11/07 10:16:03;;;;;;;17.75;9.55;;;5.50;99.70;;;;;;5026420;28;20040;-67
2021/11/07 10:18:52;;;;;;;19.70;10.48;;;5.60;99.50;;;;;;5029464;28;20058;-67
2021/11/07 10:21:24;;;;;;;17.70;9.05;;;5.50;98.30;;;;;;5021151;28;20018;-67
2021/11/07 10:24:09;;;;;;;17.67;9.07;;;5.50;98.30;;;;;;5013409;28;20032;-68
2021/11/07 10:26:38;;;;;;;19.42;9.63;;;5.50;99.20;;;;;;5020967;28;20403;-68
2021/11/07 10:29:06;;;;;;;17.98;9.30;;;5.40;99.20;;;;;;5021121;28;20115;-67
2021/11/07 10:42:43;;;;;;;20.40;9.32;;;6.10;99.10;;;;;;5010940;28;20124;-68
2021/11/07 10:45:25;;;;;;;15.40;8.05;;;6.20;98.60;;;;;;5018032;28;20071;-67
2021/11/07 10:53:28;;;;;;;19.27;8.60;;;6.30;95.60;;;;;;5023648;28;19924;-68
2021/11/07 10:56:01;;;;;;;14.40;8.52;;;6.30;96.40;;;;;;5018031;28;20104;-67
2021/11/07 10:58:36;;;;;;;15.75;8.77;;;6.40;94.80;;;;;;5016747;28;20018;-67
2021/11/07 11:01:05;;;;;;;19.02;10.15;;;6.40;95.00;;;;;;5033254;28;20029;-68
2021/11/07 11:03:31;;;;;;;13.38;7.82;;;6.40;96.60;;;;;;5019412;28;20025;-68
2021/11/07 11:06:09;;;;;;;17.02;9.35;;;6.50;96.90;;;;;;5016859;28;20033;-68
2021/11/07 11:08:43;;;;;;;14.65;8.18;;;6.50;95.70;;;;;;5019660;28;20405;-68
2021/11/07 11:11:25;;;;;;;18.42;9.50;;;6.60;94.70;;;;;;5021089;28;20104;-68
2021/11/07 11:14:07;;;;;;;18.70;9.40;;;6.60;95.60;;;;;;5004408;28;20588;-68
2021/11/07 11:16:55;;;;;;;16.92;8.60;;;6.70;96.40;;;;;;5028916;28;20033;-65
2021/11/07 11:42:36;;;;;;;16.27;8.35;;;7.10;94.10;;;;;;5016532;28;20042;-66
2021/11/07 11:45:04;;;;;;;16.15;8.75;;;7.20;92.60;;;;;;5025212;28;20041;-66
2021/11/07 11:53:05;;;;;;;17.73;9.57;;;7.50;94.60;;;;;;5014650;28;22068;-67
2021/11/07 12:01:02;;;;;;;14.82;7.93;;;7.50;92.50;;;;;;5019508;28;20072;-66
2021/11/07 12:03:32;;;;;;;14.05;7.90;;;7.50;92.10;;;;;;5029390;28;20188;-66
2021/11/07 12:06:03;;;;;;;14.48;7.53;;;7.50;92.60;;;;;;5018257;28;20041;-66
2021/11/07 12:13:58;;;;;;;12.57;7.47;;;7.50;92.10;;;;;;5020608;28;20037;-67
2021/11/07 12:16:52;;;;;;;15.07;7.40;;;7.50;92.70;;;;;;5026620;28;20475;-72
2021/11/07 12:19:20;;;;;;;13.77;7.95;;;7.50;92.00;;;;;;5030637;28;20103;-71
2021/11/07 12:21:51;;;;;;;13.63;8.55;;;7.50;92.60;;;;;;5017492;28;20048;-71
2021/11/07 12:24:19;;;;;;;13.38;7.95;;;7.50;93.10;;;;;;5018865;28;20029;-72
2021/11/07 12:26:45;;;;;;;11.97;7.33;;;7.50;93.20;;;;;;5022192;28;21088;-71
2021/11/07 12:29:12;;;;;;;12.25;6.80;;;7.50;92.40;;;;;;5023311;28;20338;-71
2021/11/07 12:31:58;;;;;;;11.15;7.20;;;7.50;92.00;;;;;;5028076;28;20041;-71
2021/11/07 12:34:43;;;;;;;13.30;6.47;;;7.40;91.80;;;;;;5023510;28;20449;-72
2021/11/07 12:43:01;;;;;;;10.60;6.38;;;7.50;90.60;;;;;;5014393;28;20505;-71
2021/11/07 12:45:36;;;;;;;15.18;6.63;;;7.60;91.10;;;;;;5023843;28;20029;-71
2021/11/07 12:48:05;;;;;;;12.93;7.05;;;7.60;91.10;;;;;;5018303;28;20502;-71
2021/11/07 12:50:59;;;;;;;14.02;6.93;;;7.70;90.40;;;;;;5018442;28;21645;-72
2021/11/07 12:53:49;;;;;;;11.75;6.43;;;7.70;91.60;;;;;;5004465;28;20056;-72
2021/11/07 12:56:35;;;;;;;12.88;6.80;;;7.90;91.70;;;;;;5019844;28;20079;-72
2021/11/07 12:59:06;;;;;;;12.00;7.13;;;8.00;91.90;;;;;;5026350;28;20041;-71
2021/11/07 13:01:51;;;;;;;9.20;5.72;;;8.00;91.20;;;;;;5020440;28;20029;-71
2021/11/07 13:04:18;;;;;;;10.50;6.47;;;8.00;90.00;;;;;;5013439;28;20552;-71
2021/11/07 13:06:46;;;;;;;8.98;5.85;;;8.00;89.90;;;;;;5029783;28;20025;-71
2021/11/07 13:09:13;;;;;;;11.68;6.18;;;7.90;88.80;;;;;;5024686;28;20137;-71
2021/11/07 13:11:42;;;;;;;9.82;6.13;;;7.90;90.20;;;;;;5009101;28;20092;-71
2021/11/07 13:14:18;;;;;;;8.88;5.43;;;7.90;90.30;;;;;;5023137;28;20029;-72
2021/11/07 13:17:07;;;;;;;10.52;5.25;;;8.00;90.30;;;;;;5020142;28;20031;-73
2021/11/07 13:19:44;;;;;;;9.18;5.72;;;8.10;90.30;;;;;;5016245;28;20029;-72
2021/11/07 13:25:10;;;;;;;8.23;5.72;;;8.10;90.00;;;;;;5027438;28;20119;-72
2021/11/07 13:27:44;;;;;;;7.88;5.10;;;8.10;90.00;;;;;;5028891;28;20017;-72
2021/11/07 13:30:18;;;;;;;7.38;4.80;;;8.10;89.80;;;;;;5036982;28;20032;-72
2021/11/07 13:32:46;;;;;;;10.38;5.55;;;8.20;90.50;;;;;;5027754;28;20034;-72
2021/11/07 13:35:20;;;;;;;6.72;5.03;;;8.20;90.20;;;;;;5025188;28;20483;-72
2021/11/07 13:38:15;;;;;;;8.52;5.15;;;8.20;86.60;;;;;;5023304;28;20083;-72
2021/11/07 13:40:41;;;;;;;7.47;4.65;;;8.30;87.60;;;;;;5009316;28;20533;-71
2021/11/07 13:43:09;;;;;;;7.45;4.68;;;8.30;88.60;;;;;;5022810;28;20101;-72
2021/11/07 13:45:39;;;;;;;10.00;5.53;;;8.30;88.20;;;;;;5025330;28;20028;-72
2021/11/07 13:48:24;;;;;;;8.82;4.80;;;8.30;89.20;;;;;;5011806;28;20065;-71
2021/11/07 13:50:53;;;;;;;8.90;4.68;;;8.40;88.00;;;;;;5038814;28;20025;-72
2021/11/07 13:53:26;;;;;;;7.63;4.60;;;8.40;86.40;;;;;;5038288;28;20045;-72
2021/11/07 13:55:59;;;;;;;11.02;4.45;;;8.40;86.70;;;;;;5008281;28;20075;-71
2021/11/07 13:58:28;;;;;;;7.75;4.40;;;8.40;85.50;;;;;;5022950;28;20048;-73
2021/11/07 14:00:55;;;;;;;;;;;8.40;86.50;;;;;;5026505;28;20030;-72
2021/11/07 14:03:22;;;;;;;6.07;4.22;;;8.40;82.90;;;;;;5027699;28;20905;-71
2021/11/07 14:06:05;;;;;;;4.65;3.53;;;8.40;83.40;;;;;;5022572;28;20075;-71
2021/11/07 14:09:04;;;;;;;4.65;3.30;;;8.40;84.00;;;;;;5028921;28;20573;-71
2021/11/07 14:11:33;;;;;;;6.88;3.65;;;8.50;84.80;;;;;;5038472;28;20040;-72
2021/11/07 14:14:03;;;;;;;7.03;4.30;;;8.50;84.80;;;;;;5017321;28;20096;-72
2021/11/07 14:16:32;;;;;;;5.63;3.90;;;8.50;84.50;;;;;;5038478;28;20029;-71
2021/11/07 14:18:59;;;;;;;6.65;4.13;;;8.50;85.60;;;;;;5010458;28;20025;-71
2021/11/07 14:21:30;;;;;;;6.28;3.28;;;8.50;84.60;;;;;;5009969;28;20033;-72
2021/11/07 14:24:09;;;;;;;6.63;4.35;;;8.50;85.00;;;;;;5022894;28;20017;-72
2021/11/07 14:26:44;;;;;;;;;;;8.40;84.50;;;;;;5027853;28;20035;-72
2021/11/07 14:32:05;;;;;;;6.65;3.50;;;8.50;84.50;;;;;;5034897;28;20026;-72
2021/11/07 14:34:40;;;;;;;6.57;4.28;;;8.50;84.10;;;;;;5016383;28;20056;-71
2021/11/07 14:37:11;;;;;;;6.20;4.03;;;8.40;84.10;;;;;;5021469;28;20104;-71
2021/11/07 14:39:45;;;;;;;6.70;4.50;;;8.40;84.50;;;;;;5025838;28;20024;-72
2021/11/07 14:45:14;;;;;;;7.30;4.03;;;8.40;85.00;;;;;;5028793;28;20029;-71
2021/11/07 14:48:06;;;;;;;5.47;3.88;;;8.30;84.10;;;;;;5007189;28;20033;-72
2021/11/07 14:53:07;;;;;;;5.60;4.03;;;8.30;83.90;;;;;;5024025;28;20110;-71
2021/11/07 14:55:42;;;;;;;7.03;3.60;;;8.30;84.50;;;;;;5024222;28;20028;-72
2021/11/07 15:04:11;;;;;;;5.78;4.32;;;8.30;86.00;;;;;;5021096;28;20148;-72
2021/11/07 15:06:54;;;;;;;6.22;4.07;;;8.30;86.00;;;;;;5005835;28;20018;-72
2021/11/07 15:09:57;;;;;;;5.97;3.65;;;8.20;85.90;;;;;;5020506;28;20109;-71
2021/11/07 15:18:06;;;;;;;5.28;3.90;;;8.20;86.40;;;;;;4974932;28;20026;-67
2021/11/07 15:20:36;;;;;;;6.07;3.70;;;8.10;85.20;;;;;;5022393;28;20461;-68
2021/11/07 15:23:03;;;;;;;7.82;4.63;;;8.10;85.80;;;;;;5022927;28;20056;-68
2021/11/07 15:25:33;;;;;;;5.10;4.13;;;8.10;85.00;;;;;;5018838;28;20028;-68
2021/11/07 15:28:05;;;;;;;8.07;4.32;;;8.00;84.80;;;;;;5019259;28;20034;-68
2021/11/07 15:30:36;;;;;;;5.95;3.75;;;8.00;85.10;;;;;;5035569;28;20336;-68
2021/11/07 15:33:13;;;;;;;7.07;4.20;;;8.00;85.50;;;;;;5024679;28;20510;-68
2021/11/07 15:35:54;;;;;;;6.32;3.78;;;8.00;85.40;;;;;;5019133;28;20439;-68
2021/11/07 15:38:23;;;;;;;5.10;3.72;;;8.00;85.90;;;;;;5027973;28;20028;-68
2021/11/07 15:40:51;;;;;;;7.28;3.95;;;7.90;86.10;;;;;;5024169;28;20581;-68
2021/11/07 15:43:19;;;;;;;6.57;4.45;;;7.90;86.30;;;;;;5021332;28;20483;-67
2021/11/07 15:46:00;;;;;;;5.22;3.88;;;7.90;86.60;;;;;;5026522;28;20551;-67